KSGR/SGR METAR and TAF weather

Enter ICAO airport designator
Station Type Date Time Source
KSGR METAR 2020/01/26 03:53 UTC NOAA

KSGR 260353Z AUTO 13006KT 10SM BKN023 OVC030 18/14 A3004 RMK AO2 SLP173 T01780139


Station Type Date Time Source
KSGR Decoded METAR 2020/01/26 03:53 UTC NOAA

SUGARLAND REGIONAL AIRPORT, TX, United States (KSGR) 29-37N 095-39W
Jan 25, 2020 - 10:53 PM EST / 2020.01.26 0353 UTC
Wind: from the SE (130 degrees) at 7 MPH (6 KT):0
Visibility: 10 mile(s):0
Sky conditions: overcast
Temperature: 64.0 F (17.8 C)
Dew Point: 57.0 F (13.9 C)
Relative Humidity: 77%
Pressure (altimeter): 30.04 in. Hg (1017 hPa)
ob: KSGR 260353Z AUTO 13006KT 10SM BKN023 OVC030 18/14 A3004 RMK AO2 SLP173 T01780139
cycle: 4

Station Type Date Time Source
KSGR TAF 2020/01/25 18:22 UTC NOAA

TAF KSGR 251720Z 2518/2618 13014KT P6SM OVC080
FM260000 14009KT P6SM VCSH OVC060
FM260500 13007KT P6SM -SHRA OVC020
FM261000 16005KT 4SM -SHRA OVC006
FM261200 VRB04KT 5SM BR VCSH OVC008
FM261700 27005KT P6SM VCSH BKN026

Example: see airport list